Terminal Aerodrome Forecast
Issued by NWS

Current Version | Previous Version | Text Only | Print | Product List | Glossary Off
Versions: 1 2 3 4 5 6 7 8 9 10 11 12 13 14 15 16 17 18 19 20 21 22 23 24 25

000
FTUS41 KRLX 021809 RRA
TAFCKB
TAF
KCKB 021809Z 0218/0318 28010G15KT P6SM BKN050
     FM022100 29009KT P6SM VCTS BKN040CB
     FM030000 24005KT 5SM SHRA VCTS BKN035CB
     FM030200 24004KT 3SM SHRA VCTS BKN025CB
     FM030400 VRB03KT 2SM SHRA SCT001 OVC010
     FM030600 01004KT 1SM SHRA BR SCT001 OVC006
     FM030800 01004KT 1/2SM FG SCT001 OVC008
     FM031400 30004KT 2SM HZ BKN008
     FM031600 29008KT P6SM BKN025=

USA.gov is the U.S. government's official web portal to all federal, state and local government web resources and services.